Time;durP1;ratioP1;P1;durP2;ratioP2;P2;SDS_P1;SDS_P2;PMS_P1;PMS_P2;Temp;Humidity;BMP_temperature;BMP_pressure;BME280_temperature;BME280_humidity;BME280_pressure;Samples;Min_cycle;Max_cycle;Signal;HPM_P1;HPM_P2
2021/08/30 00:02:17;;;;;;;5.77;3.07;;;14.80;94.00;;;;;;4963489;29;20019;-75
2021/08/30 00:04:42;;;;;;;2.57;1.83;;;14.70;94.00;;;;;;4963331;28;20025;-75
2021/08/30 00:07:08;;;;;;;6.13;2.23;;;14.70;93.80;;;;;;4963762;29;20341;-75
2021/08/30 00:09:33;;;;;;;4.77;2.10;;;14.70;94.10;;;;;;4963652;29;20023;-72
2021/08/30 00:11:59;;;;;;;2.80;2.10;;;14.80;94.00;;;;;;4963392;29;20019;-75
2021/08/30 00:14:25;;;;;;;3.10;2.53;;;14.80;94.10;;;;;;4963459;29;20094;-75
2021/08/30 00:16:50;;;;;;;3.70;2.40;;;14.80;94.00;;;;;;4963434;29;20034;-75
2021/08/30 00:19:16;;;;;;;2.33;1.97;;;14.80;94.10;;;;;;4962663;29;20030;-75
2021/08/30 00:21:41;;;;;;;2.53;2.17;;;14.80;94.10;;;;;;4963401;28;20023;-75
2021/08/30 00:24:07;;;;;;;3.17;2.27;;;14.90;94.20;;;;;;4963254;29;20015;-75
2021/08/30 00:26:33;;;;;;;5.67;2.00;;;14.80;93.90;;;;;;4962675;28;20023;-75
2021/08/30 00:28:58;;;;;;;3.33;1.93;;;14.80;93.90;;;;;;4963404;29;20322;-75
2021/08/30 00:31:26;;;;;;;5.30;2.50;;;14.80;94.00;;;;;;4963374;28;20267;-75
2021/08/30 00:33:55;;;;;;;4.85;2.10;;;14.80;94.10;;;;;;4962838;29;20034;-75
2021/08/30 00:36:22;;;;;;;3.42;2.33;;;14.80;94.10;;;;;;4963209;29;20034;-75
2021/08/30 00:38:48;;;;;;;2.78;2.20;;;14.80;94.10;;;;;;4979249;28;20184;-73
2021/08/30 00:41:14;;;;;;;5.15;2.60;;;14.80;94.10;;;;;;4963167;28;20023;-73
2021/08/30 00:43:40;;;;;;;5.70;2.63;;;14.80;94.10;;;;;;4962915;29;20038;-73
2021/08/30 00:46:06;;;;;;;4.95;3.20;;;14.80;94.20;;;;;;4963132;29;20342;-73
2021/08/30 00:48:32;;;;;;;3.97;2.50;;;14.80;94.20;;;;;;4962837;29;20038;-73
2021/08/30 00:50:58;;;;;;;5.97;2.93;;;14.80;94.30;;;;;;4947228;29;20027;-72
2021/08/30 00:53:24;;;;;;;3.00;2.42;;;14.70;94.50;;;;;;4962887;29;20023;-73
2021/08/30 00:55:49;;;;;;;5.80;3.00;;;14.70;94.50;;;;;;4962906;29;20027;-73
2021/08/30 00:58:15;;;;;;;4.80;2.73;;;14.70;94.40;;;;;;4963027;28;20015;-73
2021/08/30 01:00:41;;;;;;;3.73;2.60;;;14.70;94.60;;;;;;4963054;29;20086;-72
2021/08/30 01:03:07;;;;;;;4.55;3.00;;;14.70;94.40;;;;;;4962690;29;20023;-73
2021/08/30 01:05:32;;;;;;;3.63;2.83;;;14.80;94.50;;;;;;4962640;29;20054;-73
2021/08/30 01:08:21;;;;;;;3.13;2.77;;;14.80;94.60;;;;;;4963053;29;20027;-73
2021/08/30 01:10:47;;;;;;;4.78;2.53;;;14.70;94.50;;;;;;4963913;29;20031;-73
2021/08/30 01:13:15;;;;;;;5.07;2.40;;;14.80;94.40;;;;;;4963793;28;20019;-73
2021/08/30 01:15:43;;;;;;;5.13;3.08;;;14.80;94.30;;;;;;4962707;29;20019;-73
2021/08/30 01:18:28;;;;;;;3.30;2.78;;;14.70;94.40;;;;;;4962859;29;20030;-73
2021/08/30 01:21:15;;;;;;;6.60;2.80;;;14.70;94.60;;;;;;4963644;29;20062;-73
2021/08/30 01:23:42;;;;;;;3.92;2.75;;;14.70;94.60;;;;;;4978439;28;20019;-72
2021/08/30 01:26:09;;;;;;;3.90;2.83;;;14.70;94.50;;;;;;4962603;29;20027;-73
2021/08/30 01:28:41;;;;;;;3.85;2.67;;;14.70;94.40;;;;;;4962794;29;20054;-73
2021/08/30 01:31:50;;;;;;;4.18;3.10;;;14.70;94.60;;;;;;4962801;29;20046;-73
2021/08/30 01:34:15;;;;;;;4.13;3.03;;;14.60;94.50;;;;;;4918045;29;20035;-73
2021/08/30 01:36:49;;;;;;;4.63;3.17;;;14.60;94.60;;;;;;4963562;28;20027;-74
2021/08/30 01:39:14;;;;;;;5.47;3.10;;;14.60;94.60;;;;;;4962623;29;20047;-68
2021/08/30 01:41:40;;;;;;;4.23;3.40;;;14.70;94.60;;;;;;4950622;29;20073;-68
2021/08/30 01:44:06;;;;;;;4.03;2.53;;;14.70;94.50;;;;;;4950510;29;20082;-68
2021/08/30 01:46:32;;;;;;;5.33;2.70;;;14.70;94.50;;;;;;4950750;29;20031;-67
2021/08/30 01:48:58;;;;;;;5.82;3.28;;;14.70;94.50;;;;;;4968247;28;20097;-68
2021/08/30 01:51:25;;;;;;;3.33;2.90;;;14.70;94.40;;;;;;4986034;28;20026;-68
2021/08/30 01:53:52;;;;;;;6.15;2.85;;;14.70;94.40;;;;;;4953601;28;20069;-68
2021/08/30 01:56:19;;;;;;;3.53;2.80;;;14.80;94.40;;;;;;4985957;28;20018;-68
2021/08/30 02:01:31;;;;;;;4.05;2.95;;;14.70;94.50;;;;;;4972681;28;20026;-68
2021/08/30 02:03:56;;;;;;;4.50;3.30;;;14.60;94.50;;;;;;4985465;28;20011;-68
2021/08/30 02:06:22;;;;;;;6.07;3.77;;;14.70;94.60;;;;;;4986746;28;20348;-68
2021/08/30 02:08:47;;;;;;;4.27;3.37;;;14.60;94.50;;;;;;4986421;28;20038;-68
2021/08/30 02:11:15;;;;;;;4.33;3.30;;;14.70;94.60;;;;;;4986732;28;20082;-68
2021/08/30 02:13:40;;;;;;;5.93;3.70;;;14.70;94.20;;;;;;4986159;28;20062;-68
2021/08/30 02:16:06;;;;;;;7.10;3.33;;;14.70;94.50;;;;;;4986622;28;20031;-68
2021/08/30 02:18:38;;;;;;;4.83;3.40;;;14.60;94.50;;;;;;4985792;28;20026;-68
2021/08/30 02:21:10;;;;;;;5.93;2.88;;;14.60;94.70;;;;;;4985787;28;20018;-68
2021/08/30 02:23:40;;;;;;;6.93;3.70;;;14.60;94.80;;;;;;4985124;28;20015;-68
2021/08/30 02:26:11;;;;;;;3.72;3.10;;;14.60;94.70;;;;;;4985634;28;20236;-68
2021/08/30 02:28:37;;;;;;;4.25;3.58;;;14.60;94.60;;;;;;4985366;28;20030;-68
2021/08/30 02:31:03;;;;;;;5.43;3.72;;;14.60;94.80;;;;;;4969297;28;20027;-68
2021/08/30 02:33:28;;;;;;;6.23;3.57;;;14.70;94.70;;;;;;4985025;28;20131;-68
2021/08/30 02:36:02;;;;;;;7.13;3.97;;;14.60;94.80;;;;;;4985258;28;20317;-68
2021/08/30 02:38:27;;;;;;;4.45;3.55;;;14.60;94.80;;;;;;4984981;28;20117;-68
2021/08/30 02:40:53;;;;;;;6.53;4.13;;;14.60;94.70;;;;;;4986364;28;20018;-68
2021/08/30 02:43:18;;;;;;;7.17;4.43;;;14.60;94.80;;;;;;4984897;28;20042;-67
2021/08/30 02:45:44;;;;;;;5.23;3.93;;;14.60;94.80;;;;;;4986264;28;20015;-68
2021/08/30 02:48:09;;;;;;;6.87;4.30;;;14.60;94.90;;;;;;4984497;28;20023;-68
2021/08/30 02:50:35;;;;;;;3.97;3.57;;;14.60;95.00;;;;;;4985159;28;20062;-68
2021/08/30 02:53:01;;;;;;;4.87;3.60;;;14.60;94.90;;;;;;4984489;28;20021;-68
2021/08/30 02:55:27;;;;;;;7.93;4.20;;;14.60;94.80;;;;;;4985106;28;20027;-68
2021/08/30 02:57:52;;;;;;;5.47;3.70;;;14.60;94.80;;;;;;4984793;28;20026;-68
2021/08/30 03:00:18;;;;;;;3.70;3.27;;;14.70;94.90;;;;;;4986171;28;20086;-68
2021/08/30 03:02:44;;;;;;;3.53;2.90;;;14.70;94.80;;;;;;4984762;28;20041;-68
2021/08/30 03:05:13;;;;;;;3.58;3.00;;;14.70;94.60;;;;;;4984902;28;20054;-68
2021/08/30 03:07:39;;;;;;;7.05;3.10;;;14.70;94.60;;;;;;4984547;28;20030;-68
2021/08/30 03:10:05;;;;;;;3.10;2.10;;;14.70;94.50;;;;;;4984834;28;20072;-68
2021/08/30 03:12:34;;;;;;;7.07;2.30;;;14.70;94.40;;;;;;4984512;28;20099;-68
2021/08/30 03:15:03;;;;;;;3.78;2.22;;;14.70;94.30;;;;;;4984588;28;20384;-68
2021/08/30 03:17:30;;;;;;;5.57;2.20;;;14.70;94.30;;;;;;4984550;28;20026;-68
2021/08/30 03:19:55;;;;;;;4.38;2.05;;;14.70;94.30;;;;;;4983619;28;20015;-68
2021/08/30 03:22:21;;;;;;;3.27;2.33;;;14.70;94.30;;;;;;4984341;28;20127;-68
2021/08/30 03:24:47;;;;;;;4.50;2.73;;;14.70;94.30;;;;;;4984665;28;20439;-68
2021/08/30 03:27:13;;;;;;;4.90;2.17;;;14.70;94.30;;;;;;4984372;28;20027;-68
2021/08/30 03:29:39;;;;;;;3.10;2.28;;;14.60;94.20;;;;;;4984493;28;20031;-68
2021/08/30 03:32:08;;;;;;;2.73;2.40;;;14.60;94.10;;;;;;4984124;28;20097;-68
2021/08/30 03:34:34;;;;;;;4.10;2.47;;;14.60;94.20;;;;;;4984090;28;20027;-68
2021/08/30 03:37:00;;;;;;;4.18;2.13;;;14.60;94.20;;;;;;4984235;28;20027;-68
2021/08/30 03:39:26;;;;;;;3.27;2.70;;;14.60;94.10;;;;;;4984418;28;20343;-68
2021/08/30 03:41:51;;;;;;;4.57;3.07;;;14.60;94.00;;;;;;4984028;28;20019;-68
2021/08/30 03:44:18;;;;;;;5.03;2.60;;;14.60;94.10;;;;;;4984578;28;20037;-68
2021/08/30 03:46:44;;;;;;;7.65;4.53;;;14.60;94.10;;;;;;4984325;28;20229;-68
2021/08/30 03:49:10;;;;;;;8.80;3.77;;;14.60;94.10;;;;;;4984172;28;20018;-68
2021/08/30 03:51:36;;;;;;;5.15;3.40;;;14.60;94.20;;;;;;4984024;28;20046;-68
2021/08/30 03:54:02;;;;;;;4.40;3.70;;;14.60;94.20;;;;;;4983952;28;20043;-68
2021/08/30 03:56:27;;;;;;;4.85;4.10;;;14.60;94.30;;;;;;4983901;28;20229;-68
2021/08/30 03:58:53;;;;;;;7.40;3.87;;;14.70;94.30;;;;;;4984085;28;20023;-68
2021/08/30 04:01:24;;;;;;;5.97;3.57;;;14.60;94.30;;;;;;4984092;28;20073;-68
2021/08/30 04:03:49;;;;;;;6.07;3.65;;;14.70;94.40;;;;;;4984904;28;20042;-68
2021/08/30 04:06:15;;;;;;;5.17;3.30;;;14.60;94.30;;;;;;4983623;28;20030;-68
2021/08/30 04:08:41;;;;;;;4.27;3.77;;;14.60;94.50;;;;;;4983576;28;20042;-68
2021/08/30 04:11:09;;;;;;;5.33;3.13;;;14.60;94.40;;;;;;4983305;28;20026;-68
2021/08/30 04:13:35;;;;;;;5.72;3.75;;;14.50;94.40;;;;;;4983300;28;20066;-67
2021/08/30 04:16:00;;;;;;;5.00;3.57;;;14.60;94.30;;;;;;4983469;28;20022;-68
2021/08/30 04:18:26;;;;;;;4.17;3.20;;;14.50;94.50;;;;;;4983106;28;20070;-68
2021/08/30 04:20:51;;;;;;;3.67;2.80;;;14.50;94.40;;;;;;4982433;28;20089;-67
2021/08/30 04:23:17;;;;;;;4.30;3.40;;;14.60;94.40;;;;;;4983637;28;20490;-68
2021/08/30 04:25:43;;;;;;;5.60;4.10;;;14.50;94.30;;;;;;4984117;28;20029;-69
2021/08/30 04:28:08;;;;;;;7.00;3.43;;;14.50;94.20;;;;;;4983794;28;20233;-69
2021/08/30 04:30:35;;;;;;;9.23;3.70;;;14.50;94.40;;;;;;4983991;28;20023;-68
2021/08/30 04:33:01;;;;;;;3.92;3.17;;;14.50;94.40;;;;;;4983706;28;20030;-68
2021/08/30 04:35:27;;;;;;;5.20;3.23;;;14.50;94.30;;;;;;4983902;28;20026;-68
2021/08/30 04:37:52;;;;;;;5.03;2.97;;;14.60;94.30;;;;;;4983773;28;20026;-69
2021/08/30 04:40:18;;;;;;;7.20;3.40;;;14.50;94.20;;;;;;4983994;28;20022;-68
2021/08/30 04:42:43;;;;;;;5.00;2.97;;;14.50;94.10;;;;;;4983678;28;20019;-69
2021/08/30 04:45:10;;;;;;;5.00;3.27;;;14.50;94.10;;;;;;4983893;28;20025;-69
2021/08/30 04:47:35;;;;;;;7.63;4.25;;;14.50;94.20;;;;;;4983476;28;20317;-68
2021/08/30 04:50:02;;;;;;;5.37;3.37;;;14.50;94.30;;;;;;4983568;28;20058;-68
2021/08/30 04:52:28;;;;;;;5.68;2.90;;;14.50;94.30;;;;;;4982392;28;20233;-68
2021/08/30 04:54:53;;;;;;;5.47;3.47;;;14.50;94.20;;;;;;4983625;28;20022;-69
2021/08/30 04:57:19;;;;;;;4.07;3.30;;;14.60;94.20;;;;;;4966252;28;20049;-68
2021/08/30 04:59:44;;;;;;;7.13;3.90;;;14.50;94.00;;;;;;4983707;28;20213;-69
2021/08/30 05:02:10;;;;;;;6.40;3.23;;;14.50;94.10;;;;;;4983369;28;20015;-68
2021/08/30 05:04:35;;;;;;;4.80;3.33;;;14.40;94.10;;;;;;4983425;28;20018;-68
2021/08/30 05:07:02;;;;;;;3.53;3.23;;;14.40;94.10;;;;;;4983658;28;20019;-68
2021/08/30 05:09:28;;;;;;;;;;;14.50;94.10;;;;;;4982563;28;20018;-69
2021/08/30 05:11:54;;;;;;;5.05;3.72;;;14.50;94.20;;;;;;4981428;28;19948;-68
2021/08/30 05:14:20;;;;;;;5.30;3.10;;;14.50;94.10;;;;;;4983163;28;20069;-69
2021/08/30 05:16:45;;;;;;;5.30;3.30;;;14.50;94.10;;;;;;4983166;28;20019;-69
2021/08/30 05:19:11;;;;;;;5.67;3.37;;;14.50;94.10;;;;;;4981550;28;20029;-69
2021/08/30 05:21:36;;;;;;;3.80;3.40;;;14.50;94.10;;;;;;4982080;28;20033;-69
2021/08/30 05:24:02;;;;;;;5.57;3.03;;;14.40;94.10;;;;;;4981718;28;20030;-68
2021/08/30 05:26:28;;;;;;;6.50;3.03;;;14.40;94.40;;;;;;4982045;28;20034;-69
2021/08/30 05:28:53;;;;;;;4.50;3.17;;;14.50;94.30;;;;;;4982836;28;20229;-69
2021/08/30 05:31:19;;;;;;;5.37;3.80;;;14.40;94.20;;;;;;4981876;28;20023;-69
2021/08/30 05:33:44;;;;;;;5.80;3.30;;;14.50;94.20;;;;;;4981749;28;20026;-69
2021/08/30 05:36:10;;;;;;;13.90;3.60;;;14.50;94.20;;;;;;4982644;28;20034;-68
2021/08/30 05:38:36;;;;;;;10.47;3.90;;;14.60;94.10;;;;;;4981572;28;20417;-69
2021/08/30 05:41:01;;;;;;;9.67;2.80;;;14.60;94.00;;;;;;4981865;28;20078;-69
2021/08/30 05:43:27;;;;;;;5.20;3.27;;;14.60;93.90;;;;;;4982801;28;20284;-69
2021/08/30 05:45:52;;;;;;;8.43;4.33;;;14.60;94.00;;;;;;4982956;28;20217;-69
2021/08/30 05:48:18;;;;;;;7.87;4.20;;;14.60;94.10;;;;;;4981670;28;20015;-69
2021/08/30 05:50:44;;;;;;;9.70;3.47;;;14.70;94.10;;;;;;4981613;28;20372;-69
2021/08/30 05:53:09;;;;;;;6.87;4.03;;;14.70;94.10;;;;;;4982512;28;20323;-69
2021/08/30 05:55:35;;;;;;;5.70;3.80;;;14.70;94.00;;;;;;4982899;28;20023;-68
2021/08/30 05:58:00;;;;;;;6.70;4.07;;;14.70;94.00;;;;;;4982678;28;20022;-69
2021/08/30 06:00:26;;;;;;;5.73;3.83;;;14.80;94.10;;;;;;4982663;28;20019;-69
2021/08/30 06:02:52;;;;;;;13.57;4.17;;;14.80;93.90;;;;;;4981354;28;20027;-69
2021/08/30 06:05:17;;;;;;;10.50;3.50;;;14.80;94.00;;;;;;4982531;28;20019;-68
2021/08/30 06:07:43;;;;;;;8.67;3.27;;;14.80;93.80;;;;;;4982709;28;20046;-69
2021/08/30 06:10:09;;;;;;;6.00;2.60;;;14.80;93.60;;;;;;4982683;28;20029;-69
2021/08/30 06:12:35;;;;;;;8.47;2.87;;;14.90;93.60;;;;;;4982595;28;20049;-69
2021/08/30 06:15:02;;;;;;;6.07;3.03;;;15.00;93.50;;;;;;4981565;28;20145;-69
2021/08/30 06:17:28;;;;;;;;;;;15.00;93.10;;;;;;4983024;28;20027;-69
2021/08/30 06:19:54;;;;;;;6.50;2.75;;;15.00;93.20;;;;;;4982203;28;19902;-69
2021/08/30 06:22:19;;;;;;;6.43;3.30;;;15.00;93.20;;;;;;4982199;28;20022;-69
2021/08/30 06:24:48;;;;;;;7.73;2.60;;;15.00;93.20;;;;;;4984933;28;20014;-69
2021/08/30 06:27:18;;;;;;;4.10;2.88;;;15.10;93.20;;;;;;4986067;28;20030;-69
2021/08/30 06:29:44;;;;;;;3.97;2.38;;;15.10;93.50;;;;;;4984833;28;20195;-69
2021/08/30 06:32:09;;;;;;;5.60;3.08;;;15.20;93.20;;;;;;4984667;28;20045;-69
2021/08/30 06:34:35;;;;;;;6.30;2.80;;;15.20;93.20;;;;;;4985970;28;20050;-69
2021/08/30 06:37:01;;;;;;;11.63;2.43;;;15.30;93.10;;;;;;4985237;28;20074;-69
2021/08/30 06:39:26;;;;;;;5.30;2.73;;;15.30;93.10;;;;;;4985788;28;20038;-69
2021/08/30 06:41:52;;;;;;;4.93;2.20;;;15.40;93.10;;;;;;4985570;28;20026;-69
2021/08/30 06:44:17;;;;;;;5.90;2.70;;;15.40;93.00;;;;;;4985807;28;20019;-69
2021/08/30 06:46:43;;;;;;;5.47;2.90;;;15.50;92.80;;;;;;4985654;28;20031;-69
2021/08/30 06:49:09;;;;;;;4.77;2.63;;;15.50;92.90;;;;;;4984336;28;20333;-69
2021/08/30 06:51:34;;;;;;;4.00;2.40;;;15.50;92.80;;;;;;4985168;28;20218;-69
2021/08/30 06:54:00;;;;;;;6.13;2.97;;;15.50;92.80;;;;;;4985240;28;20029;-69
2021/08/30 06:56:26;;;;;;;5.27;3.00;;;15.60;92.70;;;;;;4985504;28;20030;-69
2021/08/30 06:58:51;;;;;;;5.17;3.33;;;15.60;92.60;;;;;;4985347;28;20027;-69
2021/08/30 07:01:17;;;;;;;9.03;3.07;;;15.50;92.50;;;;;;4985183;28;20031;-68
2021/08/30 07:03:42;;;;;;;5.77;2.50;;;15.40;92.50;;;;;;4985023;28;20042;-69
2021/08/30 07:06:08;;;;;;;4.97;2.53;;;15.50;92.30;;;;;;4984998;28;20049;-69
2021/08/30 07:08:34;;;;;;;3.83;2.50;;;15.50;92.30;;;;;;4984192;28;20033;-69
2021/08/30 07:10:59;;;;;;;5.47;2.67;;;15.50;92.50;;;;;;4985085;28;20030;-69
2021/08/30 07:13:25;;;;;;;10.17;2.77;;;15.50;92.50;;;;;;4984963;28;20041;-68
2021/08/30 07:15:50;;;;;;;11.63;3.87;;;15.50;92.50;;;;;;4985167;28;20023;-69
2021/08/30 07:18:16;;;;;;;7.63;3.03;;;15.60;92.70;;;;;;4985075;28;20069;-69
2021/08/30 07:20:42;;;;;;;5.80;2.93;;;15.60;92.50;;;;;;4984577;28;20090;-68
2021/08/30 07:23:08;;;;;;;6.73;2.87;;;15.60;92.40;;;;;;4984817;28;20042;-69
2021/08/30 07:25:34;;;;;;;11.90;3.80;;;15.60;92.30;;;;;;4983843;28;20019;-66
2021/08/30 07:27:59;;;;;;;5.47;3.37;;;15.60;92.60;;;;;;4976900;28;20034;-66
2021/08/30 07:30:25;;;;;;;11.57;3.37;;;15.60;92.50;;;;;;4978924;28;20027;-65
2021/08/30 07:32:51;;;;;;;6.27;3.10;;;15.60;92.60;;;;;;4984475;28;20082;-67
2021/08/30 07:35:16;;;;;;;5.23;2.83;;;15.60;92.40;;;;;;4983955;28;20069;-66
2021/08/30 07:37:42;;;;;;;6.50;2.97;;;15.50;92.20;;;;;;4984418;28;20042;-66
2021/08/30 07:40:08;;;;;;;6.13;2.97;;;15.50;92.40;;;;;;4984322;28;20053;-68
2021/08/30 07:42:34;;;;;;;4.30;3.05;;;15.50;92.80;;;;;;4984475;28;20030;-68
2021/08/30 07:45:00;;;;;;;4.33;2.50;;;15.50;92.40;;;;;;4984587;28;20213;-68
2021/08/30 07:47:26;;;;;;;2.70;2.13;;;15.50;92.20;;;;;;4984326;28;20019;-68
2021/08/30 07:49:51;;;;;;;6.83;3.03;;;15.50;92.20;;;;;;4967247;28;20309;-68
2021/08/30 07:52:20;;;;;;;5.23;2.33;;;15.50;92.00;;;;;;4983510;28;20266;-68
2021/08/30 07:54:46;;;;;;;3.30;2.10;;;15.60;92.00;;;;;;4984360;28;20018;-68
2021/08/30 07:57:11;;;;;;;5.50;2.43;;;15.60;91.80;;;;;;4978995;28;20023;-67
2021/08/30 07:59:37;;;;;;;3.23;2.30;;;15.60;91.80;;;;;;4972191;28;20031;-67
2021/08/30 08:02:02;;;;;;;5.47;2.57;;;15.80;91.80;;;;;;4983794;28;20030;-66
2021/08/30 08:04:28;;;;;;;5.40;2.60;;;15.80;91.80;;;;;;4983781;28;20046;-66
2021/08/30 08:06:54;;;;;;;6.33;3.17;;;15.90;91.70;;;;;;4983879;28;20030;-66
2021/08/30 08:09:20;;;;;;;3.23;2.27;;;16.00;91.30;;;;;;4971676;28;20038;-68
2021/08/30 08:11:46;;;;;;;3.35;2.20;;;16.10;91.30;;;;;;4973451;28;20068;-68
2021/08/30 08:14:11;;;;;;;3.20;1.77;;;16.20;91.20;;;;;;4983979;28;20095;-68
2021/08/30 08:16:37;;;;;;;4.13;1.50;;;16.20;91.00;;;;;;4983623;28;20321;-68
2021/08/30 08:19:03;;;;;;;3.37;1.80;;;16.30;90.20;;;;;;4968403;28;20305;-68
2021/08/30 08:21:28;;;;;;;1.93;1.47;;;16.30;90.40;;;;;;4980787;28;20042;-69
2021/08/30 08:23:54;;;;;;;3.80;1.77;;;16.30;90.20;;;;;;4983506;28;20015;-68
2021/08/30 08:26:20;;;;;;;2.70;1.30;;;16.30;90.60;;;;;;4983851;28;20015;-68
2021/08/30 08:28:45;;;;;;;2.47;1.57;;;16.40;90.50;;;;;;4970990;28;20023;-68
2021/08/30 08:31:11;;;;;;;2.40;1.70;;;16.40;90.20;;;;;;4977993;28;20028;-68
2021/08/30 08:33:36;;;;;;;4.87;1.60;;;16.50;90.30;;;;;;4983215;28;20031;-68
2021/08/30 08:36:02;;;;;;;3.77;1.77;;;16.50;90.20;;;;;;4983310;28;20035;-68
2021/08/30 08:38:28;;;;;;;1.33;1.23;;;16.60;90.40;;;;;;4983092;28;20026;-68
2021/08/30 08:40:53;;;;;;;2.60;1.60;;;16.50;90.30;;;;;;4983242;28;20067;-68
2021/08/30 08:43:20;;;;;;;3.20;1.53;;;16.50;90.10;;;;;;4981961;28;20014;-68
2021/08/30 08:45:47;;;;;;;3.72;1.40;;;16.40;90.50;;;;;;4983047;28;20018;-68
2021/08/30 08:48:12;;;;;;;1.23;1.13;;;16.50;90.50;;;;;;4982847;28;20086;-68
2021/08/30 08:50:38;;;;;;;1.40;1.20;;;16.60;89.80;;;;;;4981895;28;20026;-69
2021/08/30 08:53:05;;;;;;;2.53;1.27;;;16.60;89.80;;;;;;4982760;28;20023;-69
2021/08/30 08:55:34;;;;;;;1.52;1.23;;;16.60;89.40;;;;;;4981827;28;20025;-69
2021/08/30 08:58:10;;;;;;;3.42;1.50;;;16.70;88.30;;;;;;4981414;28;20045;-69
2021/08/30 09:00:36;;;;;;;1.15;1.05;;;16.70;87.90;;;;;;4969687;28;20023;-69
2021/08/30 09:03:01;;;;;;;2.25;1.38;;;16.80;88.60;;;;;;4965376;28;20035;-69
2021/08/30 09:05:28;;;;;;;3.33;1.30;;;16.80;88.40;;;;;;4982895;28;20214;-69
2021/08/30 09:07:56;;;;;;;1.83;1.10;;;16.90;87.90;;;;;;4982882;28;20015;-69
2021/08/30 09:10:25;;;;;;;1.73;1.10;;;17.00;87.10;;;;;;4983220;28;20031;-68
2021/08/30 09:12:51;;;;;;;6.20;1.23;;;17.20;85.50;;;;;;4982750;28;20015;-69
2021/08/30 09:15:26;;;;;;;4.13;1.70;;;17.30;86.80;;;;;;4983181;28;20094;-69
2021/08/30 09:17:55;;;;;;;6.30;1.10;;;17.30;84.60;;;;;;4983104;28;20615;-69
2021/08/30 09:20:26;;;;;;;2.58;0.98;;;17.30;83.60;;;;;;4982402;28;20261;-68
2021/08/30 09:22:52;;;;;;;1.00;0.90;;;17.50;82.90;;;;;;4982739;28;20042;-68
2021/08/30 09:25:18;;;;;;;2.90;1.05;;;17.60;83.60;;;;;;4982086;28;20023;-69
2021/08/30 09:27:46;;;;;;;1.37;1.10;;;17.70;82.30;;;;;;4982876;28;20326;-69
2021/08/30 09:30:12;;;;;;;2.60;0.98;;;17.80;82.20;;;;;;4975045;28;20026;-69
2021/08/30 09:32:39;;;;;;;;;;;17.80;81.20;;;;;;4975775;28;20030;-69
2021/08/30 09:35:05;;;;;;;2.17;1.10;;;17.80;81.60;;;;;;4998249;28;19940;-69
2021/08/30 09:37:37;;;;;;;2.28;1.13;;;17.80;82.00;;;;;;4981366;28;20053;-69
2021/08/30 09:40:08;;;;;;;3.05;1.25;;;17.80;80.40;;;;;;4982057;28;20026;-69
2021/08/30 09:42:34;;;;;;;3.20;1.27;;;17.80;82.80;;;;;;4982169;28;20090;-69
2021/08/30 09:45:13;;;;;;;3.67;1.67;;;17.80;82.10;;;;;;4983135;28;20233;-69
2021/08/30 09:47:59;;;;;;;3.28;1.02;;;17.90;82.80;;;;;;4982801;28;20086;-69
2021/08/30 09:50:42;;;;;;;3.72;1.27;;;17.90;82.20;;;;;;4981344;28;20026;-69
2021/08/30 09:53:07;;;;;;;3.28;2.10;;;17.80;83.00;;;;;;4982638;28;20038;-69
2021/08/30 09:55:35;;;;;;;5.87;1.60;;;17.80;83.10;;;;;;4982642;28;20086;-69
2021/08/30 09:58:02;;;;;;;2.75;1.02;;;17.80;83.10;;;;;;4984002;28;20089;-70
2021/08/30 10:00:27;;;;;;;2.30;1.17;;;17.80;81.60;;;;;;4978706;28;20037;-70
2021/08/30 10:02:54;;;;;;;3.50;1.10;;;17.80;81.70;;;;;;4977571;28;20023;-70
2021/08/30 10:05:20;;;;;;;;;;;17.90;82.40;;;;;;4985509;28;20087;-71
2021/08/30 10:07:46;;;;;;;4.80;1.40;;;17.90;81.40;;;;;;4986126;28;19956;-70
2021/08/30 10:10:16;;;;;;;2.47;1.17;;;18.00;81.30;;;;;;4986162;28;20062;-69
2021/08/30 10:12:42;;;;;;;1.83;1.02;;;18.10;79.30;;;;;;4984927;28;20459;-70
2021/08/30 10:15:08;;;;;;;3.40;1.30;;;18.10;80.70;;;;;;4985369;28;20058;-69
2021/08/30 10:17:34;;;;;;;2.25;0.80;;;18.20;78.70;;;;;;4986096;28;20289;-69
2021/08/30 10:20:03;;;;;;;0.95;0.77;;;18.40;81.30;;;;;;4984842;28;20057;-70
2021/08/30 10:22:28;;;;;;;3.30;1.02;;;18.60;78.90;;;;;;4984209;28;20019;-69
2021/08/30 10:24:54;;;;;;;1.23;0.80;;;18.70;79.40;;;;;;4986200;28;20082;-70
2021/08/30 10:27:27;;;;;;;1.43;0.90;;;18.60;75.30;;;;;;4986018;28;20317;-70
2021/08/30 10:30:06;;;;;;;2.50;0.90;;;18.40;75.30;;;;;;4981014;28;20417;-70
2021/08/30 10:32:36;;;;;;;1.20;0.80;;;18.40;76.40;;;;;;4976411;28;20527;-70
2021/08/30 10:35:11;;;;;;;1.20;0.90;;;18.50;76.00;;;;;;4965305;28;20057;-69
2021/08/30 10:37:46;;;;;;;1.80;1.13;;;18.60;77.80;;;;;;4949227;29;20078;-70
2021/08/30 10:40:16;;;;;;;1.80;1.10;;;18.70;76.40;;;;;;4966357;29;20034;-70
2021/08/30 10:42:42;;;;;;;0.70;0.70;;;18.90;76.90;;;;;;4949016;29;20048;-69
2021/08/30 10:45:08;;;;;;;0.80;0.80;;;19.00;76.10;;;;;;4980141;28;20436;-70
2021/08/30 10:47:35;;;;;;;1.50;0.85;;;19.20;76.50;;;;;;4985692;28;20139;-71
2021/08/30 10:50:01;;;;;;;0.45;0.45;;;19.50;76.90;;;;;;4984891;28;20333;-70
2021/08/30 10:52:40;;;;;;;0.93;0.70;;;19.60;70.20;;;;;;4983944;28;20093;-68
2021/08/30 10:55:19;;;;;;;1.33;0.77;;;19.80;73.40;;;;;;4985521;28;20065;-69
2021/08/30 10:57:50;;;;;;;0.68;0.60;;;20.10;70.40;;;;;;4983990;28;20309;-68
2021/08/30 11:00:16;;;;;;;0.60;0.60;;;20.40;72.60;;;;;;4983997;28;20022;-70
2021/08/30 11:02:46;;;;;;;0.87;0.80;;;20.50;66.70;;;;;;4975203;28;20122;-71
2021/08/30 11:05:12;;;;;;;1.58;0.98;;;20.50;67.50;;;;;;4978869;28;20266;-70
2021/08/30 11:07:38;;;;;;;0.63;0.63;;;20.30;68.40;;;;;;4984853;28;20109;-70
2021/08/30 11:10:05;;;;;;;1.43;0.60;;;20.20;68.90;;;;;;4983217;28;20361;-69
2021/08/30 11:12:31;;;;;;;2.10;0.85;;;20.10;70.70;;;;;;4984814;28;20043;-69
2021/08/30 11:14:57;;;;;;;4.23;1.30;;;20.00;71.90;;;;;;4985009;28;20097;-68
2021/08/30 11:17:26;;;;;;;;;;;19.80;74.10;;;;;;4985453;28;20023;-70
2021/08/30 11:19:57;;;;;;;2.42;0.98;;;19.80;74.40;;;;;;4983944;28;20262;-68
2021/08/30 11:22:23;;;;;;;3.08;0.70;;;19.80;75.60;;;;;;4983586;28;20097;-69
2021/08/30 11:24:48;;;;;;;4.85;0.93;;;20.00;74.30;;;;;;4985000;28;20022;-69
2021/08/30 11:27:22;;;;;;;4.17;0.77;;;20.30;74.90;;;;;;4984771;28;20090;-69
2021/08/30 11:30:01;;;;;;;2.20;0.82;;;20.60;75.20;;;;;;4984670;28;20030;-69
2021/08/30 11:32:28;;;;;;;1.35;0.80;;;21.00;72.90;;;;;;4979116;28;20225;-70
2021/08/30 11:34:54;;;;;;;0.82;0.70;;;21.50;70.90;;;;;;4974750;28;20019;-70
2021/08/30 11:37:24;;;;;;;1.10;0.67;;;21.80;70.00;;;;;;4983133;28;20027;-70
2021/08/30 11:39:51;;;;;;;0.50;0.50;;;21.80;67.60;;;;;;4967948;28;20034;-69
2021/08/30 11:42:19;;;;;;;0.73;0.70;;;21.80;64.20;;;;;;4984084;28;20147;-70
2021/08/30 11:44:44;;;;;;;1.20;1.00;;;21.40;66.70;;;;;;4984439;28;20089;-70
2021/08/30 11:47:12;;;;;;;1.17;0.90;;;21.50;67.10;;;;;;4984250;28;20023;-69
2021/08/30 11:49:51;;;;;;;1.08;0.90;;;21.90;68.90;;;;;;4982986;28;20034;-69
2021/08/30 11:52:19;;;;;;;4.78;0.93;;;22.40;66.40;;;;;;4982643;28;20109;-69
2021/08/30 11:55:02;;;;;;;1.33;0.90;;;22.90;65.60;;;;;;4983153;28;20022;-70
2021/08/30 11:57:40;;;;;;;0.70;0.70;;;23.30;59.00;;;;;;4983860;28;20220;-70
2021/08/30 12:00:07;;;;;;;2.13;0.90;;;23.30;59.20;;;;;;4984401;28;20043;-70
2021/08/30 12:02:35;;;;;;;0.60;0.60;;;23.70;62.00;;;;;;4963238;28;20322;-70
2021/08/30 12:05:02;;;;;;;3.88;1.00;;;24.60;59.50;;;;;;4975729;28;20040;-71
2021/08/30 12:07:34;;;;;;;1.23;0.80;;;25.60;55.10;;;;;;4956072;28;20051;-69
2021/08/30 12:10:01;;;;;;;1.85;0.70;;;25.80;49.90;;;;;;4964330;28;20061;-69
2021/08/30 12:12:31;;;;;;;0.57;0.55;;;25.90;49.30;;;;;;4964371;28;20042;-70
2021/08/30 12:15:04;;;;;;;3.08;0.73;;;26.70;47.80;;;;;;4964832;28;20077;-72
2021/08/30 12:17:37;;;;;;;2.20;1.00;;;27.40;50.60;;;;;;4978655;28;20321;-69
2021/08/30 12:20:08;;;;;;;1.63;1.25;;;27.80;49.50;;;;;;4964532;29;20043;-70
2021/08/30 12:22:40;;;;;;;0.60;0.60;;;28.10;46.40;;;;;;4980573;28;20021;-70
2021/08/30 12:25:07;;;;;;;2.25;0.95;;;28.30;45.20;;;;;;4983676;28;20026;-69
2021/08/30 12:27:40;;;;;;;3.55;1.00;;;27.50;46.90;;;;;;4983641;28;20022;-70
2021/08/30 12:30:13;;;;;;;0.52;0.52;;;27.30;46.70;;;;;;4982683;28;20026;-71
2021/08/30 12:32:55;;;;;;;5.80;4.70;;;26.70;45.40;;;;;;4983072;28;20019;-69
2021/08/30 12:35:26;;;;;;;8.50;6.18;;;27.00;48.30;;;;;;4978537;28;20314;-70
2021/08/30 12:38:22;;;;;;;5.20;3.17;;;26.70;46.40;;;;;;4965378;28;20213;-70
2021/08/30 12:40:49;;;;;;;1.40;1.30;;;26.10;46.60;;;;;;4964276;28;20022;-71
2021/08/30 12:43:15;;;;;;;1.38;1.20;;;25.30;49.00;;;;;;4962791;29;20018;-71
2021/08/30 12:45:41;;;;;;;;;;;24.90;49.90;;;;;;4964517;29;20377;-71
2021/08/30 12:48:07;;;;;;;0.90;0.90;;;26.50;49.50;;;;;;4978684;28;19910;-71
2021/08/30 12:50:33;;;;;;;1.10;0.95;;;28.30;47.20;;;;;;4970898;28;20097;-69
2021/08/30 12:52:59;;;;;;;2.00;1.80;;;29.50;45.50;;;;;;4982544;28;20030;-71